Warning: Javascript must be enabled to use all the features on this page!


Page Loading - Please Wait...

Click to hideNews Bulletins

Peak Streamflow for the Nation

USGS 07128500 PURGATOIRE RIVER NEAR LAS ANIMAS, CO

Bent County, Colorado
Hydrologic Unit Code 11020010
Latitude  38°02'03.2", Longitude 103°12'05.1" NAD83
Drainage area 3,441  square miles
Contributing drainage area 3,429.2  square miles
Gage datum 3,878.04 feet above NGVD29
Output formats
Table
Graph
Tab-separated file
peakfq (watstore) format
Reselect output format
Water
Year
Date Gage
Height
(feet)
Stream-
flow
(cfs)
1922 1922-07-30 4.00 5,650
1923 1923-06-17 8.00 28,400
1924 1923-10-05 6.35 8,020
1925 1925-07-23 4.952 12,000
1926 1926-07-11 5.00 13,400
1927 1927-07-21 8.80 49,000
1928 1928-05-11 7.50 25,000
1929 1929-08-07 8.30 32,000
1930 1930-08-15 3.00 12,100
1931 1930-10-04 3.30 11,300
1949 1949-06-06 9.756 31,500
1950 1950-08-29 6.50 11,500
1951 1951-07-23 8.06 17,600
1952 1952-07-03 5.00 5,600
1953 1953-07-12 8.80 20,900
1954 1954-07-23 11.55 38,800
1955 1955-05-20 15.00 70,000
1956 1956-08-19 7.506 14,200
1957 1957-06-02 4.75 5,520
1958 1958-07-06 6.17 9,710
1959 1959-06-24 4.55 4,490
1960 1960-04-13 4.782 5,040
1961 1961-07-08 5.65 4,060
1962 1962-07-27 5.57 3,900
1963 1963-07-27 6.97 6,930
1964 1964-08-09 5.18 3,240
1965 1965-06-18 15.94 62,500
1966 1966-09-27 5.586 17,300
1967 1967-06-17 6.50 11,600
1968 1968-08-10 6.50 11,600
1969 1969-06-17 6.89 14,200
1970 1970-07-13 5.00 4,400
1971 1971-08-29 5.94 8,390
1972 1972-07-03 9.50 22,000
1973 1973-07-21 7.23 3,720
1974 1974-08-16 5.22 1,790
1975 1975-08-02 5.06 604
1976 1976-08-02 9.60 5,670
1977 1977-08-18 8.082 3,140
1978 1978-06-28 8.22 3,850
1979 1979-08-01 7.03 2,530
1980 1980-05-02 6.07 1,920
1981 1981-07-05 10.09 6,680
1982 1982-07-31 8.216 2,340
1983 1983-06-07 9.26 3,070
1984 1984-08-22 7.97 2,410
1985 1985-05-23 7.27 1,990
1986 1986-06-03 8.55 2,690
1987 1987-05-08 8.81 2,900
1988 1988-05-22 6.58 1,460
1989 1989-05-16 6.69 1,520
1990 1990-07-21 8.93 2,870
1991 1991-07-02 6.67 1,150
1992 1992-07-09 9.43 2,560
1993 1993-04-07 7.93 1,590
1994 1994-08-21 8.60 1,930
1995 1995-05-31 10.20 2,820
1996 1996-08-31 10.21 2,830
1997 1997-08-12 9.64 2,500
1998 1998-07-08 8.77 2,010
1999 1999-05-03 12.00 5,200
2000 2000-07-18 8.46 1,810
2001 2001-07-27 8.58 1,900
2002 2002-09-11 7.94 1,590
2003 2003-06-30 8.46 1,830
2004 2004-08-19 10.52 3,440
2005 2005-04-07 9.15 2,270
2006 2006-06-21 7.92 1,580
2007 2007-06-27 6.69 1,060
2008 2008-08-19 8.97 2,130
2009 2008-10-13 8.655 1,9402
2010 2010-04-15 7.55 1,420
2011 2011-06-21 7.44 1,370
2012 2012-04-12 9.40 2,450
2013 2013-08-10 9.54 2,200
2014 2014-06-09 9.57 2,860
2015 2015-05-22 10.26 3,510
2016 2015-10-24 5.28 402
2017 2017-05-15 10.21 2,050
2018 2018-07-26 10.27 2,090
2019 2019-07-23 6.56 778
2020 2020-06-21 7.25 9862
2021 2021-05-30 14.45 3,7802
?
  Peak Gage-Height Qualification Codes.
?
  Peak Streamflow Qualification Codes.